首页
METAR-TAF:

METAR-TAF

机场 :

阿塔蒂尔克国际机场

伊斯坦布尔 阿塔土克, 土耳其

纬度: 40-58N, 经度: 028-49E, 海拔: 48米

当前天气观测

该预报发布于43分钟前的10:50 UTC
风速11节,风向东转东南,在南转南东之间变化
温度 14°C
湿度 55%
气压 998 hPa
能见度10公里或以上
少量云层高于4000英尺
多云层高于8000英尺

METAR: LTBA 241050Z 11011KT 080V150 9999 FEW040 BKN080 14/05 Q0998 NOSIG RMK RWY17L 11009KT 070V140 RWY05 08010KT RWY23 11011KT

时间: 14:33 (11:33 UTC)

预报

该预报发布于6小时和53分钟前的04:40 UTC
预报有效从24日的 06点(UTC)到 25日的 12点(UTC)
风速8节,风向东南
能见度10公里或以上
散云层高于4000英尺
多云层高于10000英尺
成为
从 24日的 06点(UTC)到 24日的 10点(UTC)
多云层高于2700英尺
小阵雨
几率 40%
从 24日的 11点(UTC)到 24日的 15点(UTC)
能見度: 4000
少量云层高于1600英尺, 积雨云.
多云层高于2700英尺
阵雨
成为
从 25日的 02点(UTC)到 25日的 06点(UTC)
少量云层高于3300英尺

TAF: LTBA 240440Z 2406/2512 14008KT 9999 SCT040 BKN100 BECMG 2406/2410 -SHRA BKN027 PROB40 2411/2415 4000 SHRA FEW016CB BKN027 BECMG 2502/2506 FEW033

超过4000个机场的气象观测和天气预报(METAR&TAF报告)。

可查询的气象台以黄色和红色小点在地图上表示。

将鼠标移到小点上方,可查看气象台名称。

然后点击查看天气观测和预报。

如需切换地图:点击带黑十字的绿色按钮放大地图;点击带横线的绿色按钮缩小地图;或者点击绿色箭头查看邻近地区的地图。


METAR-TAF: